createdAt,value
2023-03-21T00:00:59.069Z,10.10
2023-03-21T00:03:26.243Z,10.10
2023-03-21T00:05:56.189Z,10.10
2023-03-21T00:08:23.589Z,10.10
2023-03-21T00:10:57.420Z,10.10
2023-03-21T00:13:26.330Z,10.10
2023-03-21T00:16:13.761Z,10.10
2023-03-21T00:18:46.358Z,10.10
2023-03-21T00:24:04.702Z,10.10
2023-03-21T00:26:34.678Z,10.00
2023-03-21T00:29:01.417Z,10.10
2023-03-21T00:31:29.799Z,10.10
2023-03-21T00:33:56.585Z,10.10
2023-03-21T00:36:25.850Z,10.00
2023-03-21T00:38:52.536Z,10.00
2023-03-21T00:41:31.690Z,10.00
2023-03-21T00:44:05.754Z,10.00
2023-03-21T00:46:42.674Z,10.00
2023-03-21T00:49:11.964Z,10.00
2023-03-21T00:51:38.610Z,10.00
2023-03-21T00:54:05.667Z,10.00
2023-03-21T00:56:32.505Z,10.00
2023-03-21T00:58:59.355Z,9.90
2023-03-21T01:01:26.700Z,9.90
2023-03-21T01:04:03.355Z,9.90
2023-03-21T01:06:30.233Z,9.80
2023-03-21T01:08:56.866Z,9.90
2023-03-21T01:11:25.339Z,9.90
2023-03-21T01:14:03.986Z,9.80
2023-03-21T01:16:40.703Z,9.90
2023-03-21T01:19:14.872Z,9.90
2023-03-21T01:21:49.005Z,9.80
2023-03-21T01:24:15.758Z,9.90
2023-03-21T01:26:42.562Z,9.90
2023-03-21T01:29:11.395Z,9.90
2023-03-21T01:31:38.102Z,9.90
2023-03-21T01:34:04.810Z,9.90
2023-03-21T01:36:31.654Z,9.90
2023-03-21T01:38:58.346Z,9.90
2023-03-21T01:41:36.732Z,9.90
2023-03-21T01:44:07.480Z,9.90
2023-03-21T01:46:51.544Z,9.90
2023-03-21T01:49:27.033Z,9.90
2023-03-21T01:52:01.047Z,9.90
2023-03-21T01:54:37.508Z,9.90
2023-03-21T01:57:08.720Z,9.90
2023-03-21T01:59:54.437Z,9.90
2023-03-21T02:02:24.146Z,9.90
2023-03-21T02:04:55.851Z,9.90
2023-03-21T02:07:31.671Z,9.90
2023-03-21T02:10:01.409Z,9.90
2023-03-21T02:12:28.369Z,9.90
2023-03-21T02:14:55.675Z,9.90
2023-03-21T02:17:38.026Z,9.90
2023-03-21T02:20:17.192Z,9.90
2023-03-21T02:22:43.770Z,9.80
2023-03-21T02:25:29.442Z,9.80
2023-03-21T02:28:17.834Z,9.80
2023-03-21T02:31:00.359Z,9.80
2023-03-21T02:33:37.445Z,9.80
2023-03-21T02:36:13.543Z,9.80
2023-03-21T02:38:51.170Z,9.80
2023-03-21T02:41:23.799Z,9.80
2023-03-21T02:44:18.580Z,9.80
2023-03-21T02:47:05.621Z,9.80
2023-03-21T02:50:09.745Z,9.80
2023-03-21T02:52:42.264Z,9.80
2023-03-21T02:55:13.981Z,9.70
2023-03-21T02:57:44.092Z,9.80
2023-03-21T03:00:16.556Z,9.70
2023-03-21T03:02:44.270Z,9.70
2023-03-21T03:05:21.266Z,9.70
2023-03-21T03:07:51.331Z,9.70
2023-03-21T03:10:24.696Z,9.70
2023-03-21T03:12:59.904Z,9.70
2023-03-21T03:15:33.455Z,9.60
2023-03-21T03:18:14.786Z,9.60
2023-03-21T03:20:48.907Z,9.60
2023-03-21T03:23:24.027Z,9.60
2023-03-21T03:25:57.106Z,9.60
2023-03-21T03:28:27.304Z,9.60
2023-03-21T03:31:08.035Z,9.40
2023-03-21T03:33:40.057Z,9.30
2023-03-21T03:36:09.367Z,9.20
2023-03-21T03:38:38.805Z,9.10
2023-03-21T03:41:15.444Z,9.00
2023-03-21T03:43:52.199Z,9.00
2023-03-21T03:46:23.502Z,9.00
2023-03-21T03:48:56.817Z,8.90
2023-03-21T03:51:29.956Z,8.80
2023-03-21T03:53:58.181Z,8.90
2023-03-21T03:56:25.524Z,8.90
2023-03-21T03:58:52.117Z,8.90
2023-03-21T04:01:18.901Z,8.90
2023-03-21T04:03:50.735Z,8.90
2023-03-21T04:06:19.916Z,9.00
2023-03-21T04:08:46.556Z,9.00
2023-03-21T04:11:14.205Z,8.90
2023-03-21T04:13:41.080Z,9.00
2023-03-21T04:16:08.751Z,9.00
2023-03-21T04:18:35.819Z,9.00
2023-03-21T04:21:03.577Z,9.00
2023-03-21T04:23:30.163Z,9.00
2023-03-21T04:25:57.447Z,9.00
2023-03-21T04:28:24.174Z,9.00
2023-03-21T04:31:01.366Z,9.00
2023-03-21T04:33:29.967Z,9.00
2023-03-21T04:35:56.708Z,9.00
2023-03-21T04:38:23.638Z,9.00
2023-03-21T04:40:50.273Z,9.00
2023-03-21T04:43:19.272Z,9.00
2023-03-21T04:45:46.212Z,8.90
2023-03-21T04:48:14.450Z,8.90
2023-03-21T04:50:45.120Z,8.80
2023-03-21T04:53:11.765Z,8.80
2023-03-21T04:55:38.604Z,8.90
2023-03-21T04:58:08.417Z,8.90
2023-03-21T05:00:39.966Z,8.90
2023-03-21T05:03:09.781Z,8.90
2023-03-21T05:05:37.486Z,8.90
2023-03-21T05:08:07.774Z,9.00
2023-03-21T05:10:34.405Z,9.00
2023-03-21T05:13:00.917Z,9.00
2023-03-21T05:15:27.458Z,9.00
2023-03-21T05:17:54.113Z,9.00
2023-03-21T05:20:20.945Z,9.00
2023-03-21T05:22:50.078Z,9.10
2023-03-21T05:25:18.078Z,9.00
2023-03-21T05:27:45.364Z,9.00
2023-03-21T05:30:13.352Z,9.00
2023-03-21T05:32:39.847Z,9.10
2023-03-21T05:35:06.741Z,9.10
2023-03-21T05:37:33.372Z,9.10
2023-03-21T05:40:00.022Z,9.10
2023-03-21T05:42:26.621Z,9.10
2023-03-21T05:44:53.293Z,9.10
2023-03-21T05:47:19.832Z,9.10
2023-03-21T05:49:47.164Z,9.10
2023-03-21T05:52:13.865Z,9.10
2023-03-21T05:54:40.550Z,9.00
2023-03-21T05:57:07.238Z,9.10
2023-03-21T05:59:33.986Z,9.10
2023-03-21T06:02:03.222Z,9.10
2023-03-21T06:04:30.375Z,9.10
2023-03-21T06:06:57.089Z,9.10
2023-03-21T06:12:07.274Z,9.20
2023-03-21T06:14:33.821Z,9.20
2023-03-21T06:17:00.618Z,9.30
2023-03-21T06:19:27.350Z,9.30
2023-03-21T06:21:54.022Z,9.30
2023-03-21T06:24:23.180Z,9.40
2023-03-21T06:26:49.754Z,9.50
2023-03-21T06:29:19.467Z,9.60
2023-03-21T06:31:46.387Z,9.60
2023-03-21T06:34:13.438Z,9.70
2023-03-21T06:36:40.010Z,9.60
2023-03-21T06:39:08.272Z,9.70
2023-03-21T06:41:34.907Z,9.70
2023-03-21T06:44:01.551Z,9.70
2023-03-21T06:46:28.141Z,9.70
2023-03-21T06:48:54.717Z,9.70
2023-03-21T06:51:21.348Z,9.70
2023-03-21T06:53:48.093Z,9.80
2023-03-21T06:56:15.308Z,9.90
2023-03-21T06:58:42.208Z,9.90
2023-03-21T07:01:09.317Z,9.90
2023-03-21T07:03:37.612Z,10.00
2023-03-21T07:06:07.375Z,10.10
2023-03-21T07:08:41.043Z,10.20
2023-03-21T07:11:08.269Z,10.20
2023-03-21T07:13:34.936Z,10.30
2023-03-21T07:16:01.653Z,10.30
2023-03-21T07:18:28.315Z,10.30
2023-03-21T07:20:54.926Z,10.30
2023-03-21T07:23:22.620Z,10.30
2023-03-21T07:25:49.991Z,10.30
2023-03-21T07:28:17.372Z,10.30
2023-03-21T07:30:44.566Z,10.30
2023-03-21T07:33:11.780Z,10.20
2023-03-21T07:35:38.588Z,10.10
2023-03-21T07:38:05.453Z,10.10
2023-03-21T07:40:32.346Z,10.00
2023-03-21T07:42:58.891Z,9.90
2023-03-21T07:45:27.251Z,9.80
2023-03-21T07:47:54.364Z,9.60
2023-03-21T07:50:23.599Z,9.60
2023-03-21T07:52:50.415Z,9.40
2023-03-21T07:55:17.397Z,9.30
2023-03-21T07:57:44.187Z,9.20
2023-03-21T08:00:12.694Z,9.20
2023-03-21T08:02:39.847Z,9.10
2023-03-21T08:05:06.505Z,9.10
2023-03-21T08:07:33.091Z,9.00
2023-03-21T08:09:59.975Z,9.00
2023-03-21T08:12:26.495Z,9.00
2023-03-21T08:14:53.030Z,9.00
2023-03-21T08:17:19.564Z,9.00
2023-03-21T08:19:46.197Z,8.90
2023-03-21T08:22:12.743Z,8.90
2023-03-21T08:24:39.490Z,8.90
2023-03-21T08:27:06.422Z,8.90
2023-03-21T08:29:32.959Z,8.90
2023-03-21T08:31:59.562Z,9.00
2023-03-21T08:34:26.661Z,9.00
2023-03-21T08:36:56.159Z,9.00
2023-03-21T08:39:24.902Z,9.00
2023-03-21T08:41:51.703Z,9.10
2023-03-21T08:44:18.661Z,9.10
2023-03-21T08:46:45.419Z,9.10
2023-03-21T08:49:12.693Z,9.10
2023-03-21T08:51:41.188Z,9.10
2023-03-21T08:54:08.033Z,9.10
2023-03-21T08:56:36.937Z,9.10
2023-03-21T08:59:13.104Z,9.00
2023-03-21T09:01:39.966Z,9.10
2023-03-21T09:04:10.714Z,9.00
2023-03-21T09:06:37.792Z,9.00
2023-03-21T09:09:07.363Z,9.00
2023-03-21T09:11:34.384Z,9.00
2023-03-21T09:14:01.916Z,8.90
2023-03-21T09:16:28.446Z,8.90
2023-03-21T09:18:57.024Z,8.90
2023-03-21T09:21:24.023Z,8.90
2023-03-21T09:23:52.836Z,8.90
2023-03-21T09:26:19.920Z,8.90
2023-03-21T09:28:47.321Z,8.90
2023-03-21T09:31:14.530Z,9.00
2023-03-21T09:33:41.334Z,9.00
2023-03-21T09:36:12.881Z,9.00
2023-03-21T09:38:46.800Z,8.90
2023-03-21T09:41:13.673Z,8.90
2023-03-21T09:44:16.821Z,8.80
2023-03-21T09:46:57.905Z,8.80
2023-03-21T09:49:27.989Z,8.70
2023-03-21T09:51:58.004Z,8.70
2023-03-21T09:54:36.158Z,8.70
2023-03-21T09:57:17.524Z,8.70
2023-03-21T09:59:49.614Z,8.80
2023-03-21T10:02:33.418Z,8.80
2023-03-21T10:05:04.721Z,8.80
2023-03-21T10:07:35.222Z,8.80
2023-03-21T10:10:04.303Z,8.80
2023-03-21T10:12:31.248Z,8.90
2023-03-21T10:15:00.726Z,8.90
2023-03-21T10:17:27.345Z,9.00
2023-03-21T10:20:01.245Z,9.00
2023-03-21T10:22:28.026Z,9.00
2023-03-21T10:24:54.679Z,9.10
2023-03-21T10:27:21.373Z,9.20
2023-03-21T10:29:48.028Z,9.20
2023-03-21T10:32:17.190Z,9.20
2023-03-21T10:34:46.308Z,9.20
2023-03-21T10:37:13.147Z,9.20
2023-03-21T10:39:40.907Z,9.10
2023-03-21T10:42:14.870Z,9.10
2023-03-21T10:44:46.979Z,9.10
2023-03-21T10:47:19.788Z,9.00
2023-03-21T10:52:34.840Z,9.00
2023-03-21T10:55:06.893Z,9.00
2023-03-21T10:57:33.667Z,9.10
2023-03-21T11:00:02.229Z,9.10
2023-03-21T11:02:34.213Z,9.20
2023-03-21T11:05:05.748Z,9.20
2023-03-21T11:07:38.458Z,9.20
2023-03-21T11:10:30.172Z,9.30
2023-03-21T11:13:12.705Z,9.30
2023-03-21T11:15:55.944Z,9.30
2023-03-21T11:18:31.549Z,9.30
2023-03-21T11:21:06.471Z,9.30
2023-03-21T11:23:39.562Z,9.30
2023-03-21T11:26:10.026Z,9.40
2023-03-21T11:28:37.733Z,9.40
2023-03-21T11:31:05.698Z,9.40
2023-03-21T11:33:37.016Z,9.50
2023-03-21T11:36:23.889Z,9.50
2023-03-21T11:38:52.360Z,9.50
2023-03-21T11:41:23.131Z,9.50
2023-03-21T11:43:53.453Z,9.50
2023-03-21T11:46:24.517Z,9.40
2023-03-21T11:48:51.237Z,9.30
2023-03-21T11:51:20.968Z,9.30
2023-03-21T11:54:02.832Z,9.30
2023-03-21T11:56:32.441Z,9.30
2023-03-21T11:59:07.648Z,9.30
2023-03-21T12:01:41.867Z,9.20
2023-03-21T12:04:15.027Z,9.20
2023-03-21T12:06:44.498Z,9.30
2023-03-21T12:09:20.751Z,9.30
2023-03-21T12:11:54.013Z,9.30
2023-03-21T12:14:23.597Z,9.30
2023-03-21T12:16:59.322Z,9.30
2023-03-21T12:19:51.339Z,9.30
2023-03-21T12:22:28.673Z,9.40
2023-03-21T12:24:56.341Z,9.50
2023-03-21T12:27:29.080Z,9.50
2023-03-21T12:29:56.932Z,9.50
2023-03-21T12:32:34.480Z,9.40
2023-03-21T12:35:21.109Z,9.50
2023-03-21T12:37:47.784Z,9.50
2023-03-21T12:40:25.378Z,9.50
2023-03-21T12:42:52.029Z,9.50
2023-03-21T12:45:21.853Z,9.50
2023-03-21T12:47:51.494Z,9.50
2023-03-21T12:50:24.778Z,9.50
2023-03-21T12:52:54.177Z,9.50
2023-03-21T12:55:25.687Z,9.50
2023-03-21T12:57:57.736Z,9.60
2023-03-21T13:00:30.461Z,9.60
2023-03-21T13:03:03.645Z,9.70
2023-03-21T13:05:31.728Z,9.80
2023-03-21T13:08:05.242Z,9.80
2023-03-21T13:10:33.588Z,10.00
2023-03-21T13:13:07.718Z,10.10
2023-03-21T13:15:57.205Z,10.20
2023-03-21T13:18:29.687Z,10.30
2023-03-21T13:21:07.140Z,10.30
2023-03-21T13:23:37.831Z,10.30
2023-03-21T13:26:08.302Z,10.40
2023-03-21T13:28:35.745Z,10.50
2023-03-21T13:31:17.362Z,10.60
2023-03-21T13:33:46.236Z,10.80
2023-03-21T13:36:13.805Z,11.10
2023-03-21T13:38:40.607Z,11.30
2023-03-21T13:41:08.658Z,11.40
2023-03-21T13:43:53.581Z,11.20
2023-03-21T13:46:26.413Z,11.20
2023-03-21T13:48:58.839Z,11.20
2023-03-21T13:51:28.684Z,11.30
2023-03-21T13:54:18.957Z,11.40
2023-03-21T13:56:48.819Z,11.40
2023-03-21T13:59:19.183Z,11.40
2023-03-21T14:01:59.500Z,11.50
2023-03-21T14:04:36.816Z,11.50
2023-03-21T14:07:19.363Z,11.60
2023-03-21T14:09:47.534Z,11.50
2023-03-21T14:12:16.222Z,11.50
2023-03-21T14:14:49.248Z,11.40
2023-03-21T14:17:29.942Z,11.40
2023-03-21T14:20:12.402Z,11.30
2023-03-21T14:22:39.401Z,11.30
2023-03-21T14:25:08.175Z,11.40
2023-03-21T14:27:35.200Z,11.40
2023-03-21T14:30:02.180Z,11.40
2023-03-21T14:32:29.957Z,11.50
2023-03-21T14:34:57.713Z,11.50
2023-03-21T14:37:32.946Z,11.60
2023-03-21T14:40:09.016Z,11.60
2023-03-21T14:42:36.774Z,11.70
2023-03-21T14:45:18.947Z,11.70
2023-03-21T14:48:07.615Z,11.70
2023-03-21T14:50:53.938Z,11.70
2023-03-21T14:53:22.108Z,11.80
2023-03-21T14:55:57.554Z,11.90
2023-03-21T14:58:24.485Z,12.00
2023-03-21T15:00:51.451Z,12.10
2023-03-21T15:03:19.707Z,12.20
2023-03-21T15:05:46.953Z,12.30
2023-03-21T15:08:15.643Z,12.40
2023-03-21T15:10:42.753Z,12.30
2023-03-21T15:13:16.950Z,12.40
2023-03-21T15:15:44.020Z,12.60
2023-03-21T15:18:13.138Z,12.80
2023-03-21T15:20:39.864Z,12.90
2023-03-21T15:23:09.428Z,12.70
2023-03-21T15:25:37.495Z,12.80
2023-03-21T15:28:05.443Z,13.00
2023-03-21T15:30:34.264Z,13.30
2023-03-21T15:33:09.044Z,13.90
2023-03-21T15:35:40.591Z,14.70
2023-03-21T15:38:07.536Z,15.40
2023-03-21T15:40:35.274Z,16.00
2023-03-21T15:43:18.988Z,16.10
2023-03-21T15:45:56.801Z,15.80
2023-03-21T15:48:27.838Z,15.10
2023-03-21T15:51:05.391Z,14.70
2023-03-21T15:53:36.199Z,14.80
2023-03-21T15:56:05.879Z,14.90
2023-03-21T15:58:39.243Z,14.60
2023-03-21T16:01:07.123Z,14.60
2023-03-21T16:03:40.379Z,15.30
2023-03-21T16:06:14.334Z,16.20
2023-03-21T16:08:50.347Z,17.30
2023-03-21T16:11:18.858Z,16.90
2023-03-21T16:13:45.772Z,17.60
2023-03-21T16:16:16.974Z,17.20
2023-03-21T16:18:43.777Z,17.00
2023-03-21T16:21:14.677Z,17.30
2023-03-21T16:23:41.884Z,18.00
2023-03-21T16:26:12.552Z,17.90
2023-03-21T16:28:39.162Z,17.70
2023-03-21T16:31:06.097Z,17.70
2023-03-21T16:33:32.806Z,18.00
2023-03-21T16:36:00.869Z,18.10
2023-03-21T16:38:27.638Z,17.90
2023-03-21T16:40:54.304Z,18.00
2023-03-21T16:43:21.024Z,18.00
2023-03-21T16:45:47.745Z,17.70
2023-03-21T16:48:17.752Z,17.70
2023-03-21T16:50:46.714Z,17.30
2023-03-21T16:53:13.300Z,17.40
2023-03-21T16:55:40.049Z,16.90
2023-03-21T16:58:06.663Z,16.20
2023-03-21T17:00:33.854Z,15.60
2023-03-21T17:03:02.235Z,15.40
2023-03-21T17:05:30.596Z,15.50
2023-03-21T17:07:57.612Z,15.70
2023-03-21T17:10:26.304Z,15.90
2023-03-21T17:12:53.073Z,15.90
2023-03-21T17:15:20.118Z,15.90
2023-03-21T17:17:48.708Z,15.70
2023-03-21T17:20:18.483Z,15.20
2023-03-21T17:22:45.221Z,14.70
2023-03-21T17:25:12.066Z,14.10
2023-03-21T17:27:38.838Z,13.40
2023-03-21T17:30:16.534Z,12.90
2023-03-21T17:32:43.248Z,12.60
2023-03-21T17:35:09.918Z,12.40
2023-03-21T17:37:38.559Z,12.30
2023-03-21T17:40:07.070Z,12.30
2023-03-21T17:42:34.055Z,12.20
2023-03-21T17:45:00.816Z,12.30
2023-03-21T17:47:29.839Z,12.30
2023-03-21T17:49:56.557Z,12.40
2023-03-21T17:52:24.689Z,12.30
2023-03-21T17:54:51.373Z,12.20
2023-03-21T17:57:17.922Z,12.20
2023-03-21T17:59:44.966Z,12.20
2023-03-21T18:02:11.502Z,12.20
2023-03-21T18:04:38.135Z,12.30
2023-03-21T18:07:06.916Z,12.30
2023-03-21T18:09:35.513Z,12.30
2023-03-21T18:12:02.026Z,12.30
2023-03-21T18:14:30.299Z,12.30
2023-03-21T18:16:57.426Z,12.20
2023-03-21T18:19:24.254Z,12.20
2023-03-21T18:21:51.270Z,12.20
2023-03-21T18:24:17.850Z,12.20
2023-03-21T18:26:44.729Z,12.20
2023-03-21T18:32:08.851Z,12.20
2023-03-21T18:34:36.726Z,12.20
2023-03-21T18:37:04.357Z,12.20
2023-03-21T18:39:32.078Z,12.20
2023-03-21T18:42:02.469Z,12.20
2023-03-21T18:44:30.493Z,12.20
2023-03-21T18:46:57.982Z,12.10
2023-03-21T18:50:06.025Z,12.20
2023-03-21T18:52:13.363Z,12.10
2023-03-21T18:54:40.517Z,12.10
2023-03-21T18:59:58.217Z,12.00
2023-03-21T19:02:25.144Z,12.00
2023-03-21T19:04:53.354Z,12.00
2023-03-21T19:07:20.040Z,12.00
2023-03-21T19:10:13.931Z,11.90
2023-03-21T19:12:38.583Z,11.80
2023-03-21T19:15:08.154Z,11.80
2023-03-21T19:18:26.108Z,11.80
2023-03-21T19:20:26.855Z,11.80
2023-03-21T19:22:57.552Z,11.70
2023-03-21T19:25:31.401Z,11.70
2023-03-21T19:27:58.119Z,11.70
2023-03-21T19:30:24.781Z,11.70
2023-03-21T19:32:51.958Z,11.70
2023-03-21T19:35:18.896Z,11.70
2023-03-21T19:37:46.843Z,11.70
2023-03-21T19:40:13.651Z,11.60
2023-03-21T19:42:41.835Z,11.60
2023-03-21T19:45:08.753Z,11.60
2023-03-21T19:47:35.466Z,11.60
2023-03-21T19:52:48.612Z,11.50
2023-03-21T19:55:15.378Z,11.50
2023-03-21T19:57:42.003Z,11.50
2023-03-21T20:00:11.238Z,11.50
2023-03-21T20:02:38.151Z,11.50
2023-03-21T20:05:06.007Z,11.50
2023-03-21T20:07:33.024Z,11.50
2023-03-21T20:09:59.927Z,11.40
2023-03-21T20:12:29.456Z,11.40
2023-03-21T20:15:12.321Z,11.40
2023-03-21T20:17:43.938Z,11.50
2023-03-21T20:20:14.461Z,11.40
2023-03-21T20:25:29.005Z,11.40
2023-03-21T20:28:12.658Z,11.40
2023-03-21T20:30:50.458Z,11.40
2023-03-21T20:33:27.367Z,11.50
2023-03-21T20:38:46.278Z,11.40
2023-03-21T20:41:12.814Z,11.50
2023-03-21T20:46:26.290Z,11.50
2023-03-21T20:48:52.966Z,11.50
2023-03-21T20:54:06.276Z,11.50
2023-03-21T20:56:32.879Z,11.50
2023-03-21T20:59:14.935Z,11.50
2023-03-21T21:01:43.073Z,11.60
2023-03-21T21:04:10.211Z,11.60
2023-03-21T21:06:36.898Z,11.60
2023-03-21T21:09:05.391Z,11.60
2023-03-21T21:14:19.174Z,11.50
2023-03-21T21:16:47.062Z,11.50
2023-03-21T21:19:15.327Z,11.50
2023-03-21T21:21:42.070Z,11.50
2023-03-21T21:24:11.521Z,11.50
2023-03-21T21:26:40.969Z,11.40
2023-03-21T21:29:07.712Z,11.50
2023-03-21T21:31:35.839Z,11.50
2023-03-21T21:34:07.268Z,11.50
2023-03-21T21:36:37.450Z,11.50
2023-03-21T21:39:04.989Z,11.40
2023-03-21T21:41:31.747Z,11.50
2023-03-21T21:43:58.658Z,11.40
2023-03-21T21:46:28.455Z,11.40
2023-03-21T21:48:55.306Z,11.30
2023-03-21T21:51:26.119Z,11.30
2023-03-21T21:53:58.022Z,11.40
2023-03-21T21:56:32.279Z,11.30
2023-03-21T21:59:03.042Z,11.40
2023-03-21T22:01:30.581Z,11.50
2023-03-21T22:04:05.949Z,11.40
2023-03-21T22:06:33.128Z,11.40
2023-03-21T22:08:59.952Z,11.30
2023-03-21T22:11:28.161Z,11.30
2023-03-21T22:13:56.907Z,11.20
2023-03-21T22:16:26.174Z,11.20
2023-03-21T22:18:52.960Z,11.20
2023-03-21T22:21:19.734Z,11.20
2023-03-21T22:23:46.348Z,11.30
2023-03-21T22:26:21.754Z,11.30
2023-03-21T22:28:48.508Z,11.30
2023-03-21T22:31:16.251Z,11.30
2023-03-21T22:33:45.542Z,11.30
2023-03-21T22:36:12.486Z,11.20
2023-03-21T22:38:45.396Z,11.20
2023-03-21T22:41:12.011Z,11.20
2023-03-21T22:43:38.588Z,11.20
2023-03-21T22:46:05.353Z,11.10
2023-03-21T22:48:32.477Z,11.10
2023-03-21T22:50:59.998Z,11.00
2023-03-21T22:53:26.641Z,11.00
2023-03-21T22:55:53.369Z,10.90
2023-03-21T22:58:20.230Z,10.90
2023-03-21T23:00:47.244Z,10.90
2023-03-21T23:03:14.658Z,10.90
2023-03-21T23:05:41.568Z,10.90
2023-03-21T23:08:08.234Z,10.90
2023-03-21T23:10:37.813Z,10.80
2023-03-21T23:15:50.875Z,10.80
2023-03-21T23:18:17.581Z,10.80
2023-03-21T23:20:44.341Z,10.80
2023-03-21T23:23:13.437Z,10.80
2023-03-21T23:25:49.057Z,10.70
2023-03-21T23:28:18.801Z,10.70
2023-03-21T23:30:45.521Z,10.70
2023-03-21T23:33:12.191Z,10.60
2023-03-21T23:35:42.096Z,10.60
2023-03-21T23:38:08.922Z,10.70
2023-03-21T23:40:38.275Z,10.70
2023-03-21T23:43:05.259Z,10.70
2023-03-21T23:45:31.804Z,10.70
2023-03-21T23:47:58.416Z,10.70
2023-03-21T23:50:25.168Z,10.80
2023-03-21T23:52:51.703Z,10.80
2023-03-21T23:55:18.199Z,10.80
2023-03-21T23:57:44.779Z,10.80
